sensor_id;sensor_type;location;lat;lon;timestamp;temperature;humidity
8707;DHT22;4390;49.302;9.306;2022-12-19T00:01:37;-1.90;87.90
8707;DHT22;4390;49.302;9.306;2022-12-19T00:04:07;-2.00;87.90
8707;DHT22;4390;49.302;9.306;2022-12-19T00:06:37;-2.00;88.00
8707;DHT22;4390;49.302;9.306;2022-12-19T00:09:10;-2.00;88.20
8707;DHT22;4390;49.302;9.306;2022-12-19T00:11:37;-2.10;88.40
8707;DHT22;4390;49.302;9.306;2022-12-19T00:14:05;-2.00;88.50
8707;DHT22;4390;49.302;9.306;2022-12-19T00:16:32;-1.90;88.20
8707;DHT22;4390;49.302;9.306;2022-12-19T00:18:59;-1.80;88.30
8707;DHT22;4390;49.302;9.306;2022-12-19T00:21:30;-1.60;87.90
8707;DHT22;4390;49.302;9.306;2022-12-19T00:24:00;-1.60;87.60
8707;DHT22;4390;49.302;9.306;2022-12-19T00:26:31;-1.50;87.50
8707;DHT22;4390;49.302;9.306;2022-12-19T00:29:00;-1.60;87.30
8707;DHT22;4390;49.302;9.306;2022-12-19T00:31:30;-1.50;87.20
8707;DHT22;4390;49.302;9.306;2022-12-19T00:33:57;-1.70;87.30
8707;DHT22;4390;49.302;9.306;2022-12-19T00:36:30;-1.60;87.50
8707;DHT22;4390;49.302;9.306;2022-12-19T00:38:59;-1.40;87.00
8707;DHT22;4390;49.302;9.306;2022-12-19T00:41:31;-1.40;87.00
8707;DHT22;4390;49.302;9.306;2022-12-19T00:44:06;-1.60;87.00
8707;DHT22;4390;49.302;9.306;2022-12-19T00:46:34;-1.60;87.30
8707;DHT22;4390;49.302;9.306;2022-12-19T00:49:01;-1.60;87.50
8707;DHT22;4390;49.302;9.306;2022-12-19T00:51:31;-1.60;87.60
8707;DHT22;4390;49.302;9.306;2022-12-19T00:53:58;-1.50;87.30
8707;DHT22;4390;49.302;9.306;2022-12-19T00:56:30;-1.40;87.00
8707;DHT22;4390;49.302;9.306;2022-12-19T00:59:01;-1.50;87.10
8707;DHT22;4390;49.302;9.306;2022-12-19T01:01:30;-1.40;87.40
8707;DHT22;4390;49.302;9.306;2022-12-19T01:04:00;-1.30;87.10
8707;DHT22;4390;49.302;9.306;2022-12-19T01:06:46;-1.40;87.10
8707;DHT22;4390;49.302;9.306;2022-12-19T01:09:13;-1.70;87.40
8707;DHT22;4390;49.302;9.306;2022-12-19T01:11:41;-1.50;87.80
8707;DHT22;4390;49.302;9.306;2022-12-19T01:14:26;-1.50;87.60
8707;DHT22;4390;49.302;9.306;2022-12-19T01:16:53;-1.60;87.80
8707;DHT22;4390;49.302;9.306;2022-12-19T01:19:20;-1.70;87.70
8707;DHT22;4390;49.302;9.306;2022-12-19T01:21:46;-1.60;88.00
8707;DHT22;4390;49.302;9.306;2022-12-19T01:24:13;-1.60;87.90
8707;DHT22;4390;49.302;9.306;2022-12-19T01:26:48;-1.40;87.50
8707;DHT22;4390;49.302;9.306;2022-12-19T01:29:15;-1.60;87.60
8707;DHT22;4390;49.302;9.306;2022-12-19T01:31:41;-1.50;87.60
8707;DHT22;4390;49.302;9.306;2022-12-19T01:34:08;-1.50;87.60
8707;DHT22;4390;49.302;9.306;2022-12-19T01:36:35;-1.40;87.70
8707;DHT22;4390;49.302;9.306;2022-12-19T01:39:06;-1.50;87.70
8707;DHT22;4390;49.302;9.306;2022-12-19T01:41:33;-1.50;87.50
8707;DHT22;4390;49.302;9.306;2022-12-19T01:44:05;-1.50;87.70
8707;DHT22;4390;49.302;9.306;2022-12-19T01:51:51;-1.70;87.60
8707;DHT22;4390;49.302;9.306;2022-12-19T01:54:23;-1.70;88.50
8707;DHT22;4390;49.302;9.306;2022-12-19T01:56:52;-1.60;88.50
8707;DHT22;4390;49.302;9.306;2022-12-19T01:59:41;-1.60;88.60
8707;DHT22;4390;49.302;9.306;2022-12-19T02:02:13;-1.40;88.70
8707;DHT22;4390;49.302;9.306;2022-12-19T02:04:44;-1.40;88.70
8707;DHT22;4390;49.302;9.306;2022-12-19T02:07:13;-1.30;88.50
8707;DHT22;4390;49.302;9.306;2022-12-19T02:09:44;-1.20;88.20
8707;DHT22;4390;49.302;9.306;2022-12-19T02:12:12;-1.40;87.90
8707;DHT22;4390;49.302;9.306;2022-12-19T02:14:39;-1.30;88.30
8707;DHT22;4390;49.302;9.306;2022-12-19T02:23:00;-1.30;87.80
8707;DHT22;4390;49.302;9.306;2022-12-19T02:29:39;-1.30;87.70
8707;DHT22;4390;49.302;9.306;2022-12-19T02:32:05;-1.30;88.50
8707;DHT22;4390;49.302;9.306;2022-12-19T02:40:12;-1.10;87.60
8707;DHT22;4390;49.302;9.306;2022-12-19T02:42:43;-1.30;87.80
8707;DHT22;4390;49.302;9.306;2022-12-19T02:45:14;-1.40;88.30
8707;DHT22;4390;49.302;9.306;2022-12-19T02:47:55;-1.20;88.20
8707;DHT22;4390;49.302;9.306;2022-12-19T02:50:22;-1.10;87.70
8707;DHT22;4390;49.302;9.306;2022-12-19T02:52:50;-1.10;88.20
8707;DHT22;4390;49.302;9.306;2022-12-19T02:55:20;-1.00;88.20
8707;DHT22;4390;49.302;9.306;2022-12-19T03:00:49;-0.80;87.70
8707;DHT22;4390;49.302;9.306;2022-12-19T03:03:28;-0.90;88.00
8707;DHT22;4390;49.302;9.306;2022-12-19T03:08:52;-0.80;88.70
8707;DHT22;4390;49.302;9.306;2022-12-19T03:11:21;-1.00;89.00
8707;DHT22;4390;49.302;9.306;2022-12-19T03:14:01;-1.10;90.00
8707;DHT22;4390;49.302;9.306;2022-12-19T03:16:29;-0.80;89.60
8707;DHT22;4390;49.302;9.306;2022-12-19T03:18:56;-0.80;89.50
8707;DHT22;4390;49.302;9.306;2022-12-19T03:21:31;-0.90;89.60
8707;DHT22;4390;49.302;9.306;2022-12-19T03:24:01;-0.80;89.70
8707;DHT22;4390;49.302;9.306;2022-12-19T03:26:31;-0.80;89.80
8707;DHT22;4390;49.302;9.306;2022-12-19T03:29:22;-0.60;89.40
8707;DHT22;4390;49.302;9.306;2022-12-19T03:31:52;-0.70;89.30
8707;DHT22;4390;49.302;9.306;2022-12-19T03:34:30;-0.70;89.40
8707;DHT22;4390;49.302;9.306;2022-12-19T03:37:01;-0.70;89.30
8707;DHT22;4390;49.302;9.306;2022-12-19T03:39:30;-0.50;88.90
8707;DHT22;4390;49.302;9.306;2022-12-19T03:41:58;-0.70;88.90
8707;DHT22;4390;49.302;9.306;2022-12-19T03:44:46;-0.80;89.90
8707;DHT22;4390;49.302;9.306;2022-12-19T03:47:23;-0.90;90.20
8707;DHT22;4390;49.302;9.306;2022-12-19T03:49:52;-0.80;90.30
8707;DHT22;4390;49.302;9.306;2022-12-19T03:55:12;-0.90;90.50
8707;DHT22;4390;49.302;9.306;2022-12-19T04:00:19;-0.70;90.00
8707;DHT22;4390;49.302;9.306;2022-12-19T04:02:48;-0.70;90.40
8707;DHT22;4390;49.302;9.306;2022-12-19T04:05:24;-0.70;90.50
8707;DHT22;4390;49.302;9.306;2022-12-19T04:07:55;-0.60;90.10
8707;DHT22;4390;49.302;9.306;2022-12-19T04:10:25;-0.80;91.00
8707;DHT22;4390;49.302;9.306;2022-12-19T04:13:14;-0.90;91.10
8707;DHT22;4390;49.302;9.306;2022-12-19T04:18:25;-0.60;91.00
8707;DHT22;4390;49.302;9.306;2022-12-19T04:21:02;-0.50;90.30
8707;DHT22;4390;49.302;9.306;2022-12-19T04:23:35;-0.60;90.40
8707;DHT22;4390;49.302;9.306;2022-12-19T04:26:04;-0.70;90.60
8707;DHT22;4390;49.302;9.306;2022-12-19T04:28:46;-0.80;90.90
8707;DHT22;4390;49.302;9.306;2022-12-19T04:31:14;-0.70;90.90
8707;DHT22;4390;49.302;9.306;2022-12-19T04:33:42;-0.40;90.20
8707;DHT22;4390;49.302;9.306;2022-12-19T04:36:09;-0.60;90.40
8707;DHT22;4390;49.302;9.306;2022-12-19T04:38:36;-0.50;90.70
8707;DHT22;4390;49.302;9.306;2022-12-19T04:41:03;-0.40;90.70
8707;DHT22;4390;49.302;9.306;2022-12-19T04:43:30;-0.40;90.20
8707;DHT22;4390;49.302;9.306;2022-12-19T04:45:57;-0.40;90.60
8707;DHT22;4390;49.302;9.306;2022-12-19T04:48:24;-0.20;90.50
8707;DHT22;4390;49.302;9.306;2022-12-19T04:50:51;-0.30;90.70
8707;DHT22;4390;49.302;9.306;2022-12-19T04:53:18;-0.20;90.90
8707;DHT22;4390;49.302;9.306;2022-12-19T04:55:44;-0.20;90.70
8707;DHT22;4390;49.302;9.306;2022-12-19T04:58:11;-0.10;90.70
8707;DHT22;4390;49.302;9.306;2022-12-19T05:00:44;-0.20;90.90
8707;DHT22;4390;49.302;9.306;2022-12-19T05:03:11;-0.40;91.30
8707;DHT22;4390;49.302;9.306;2022-12-19T05:05:38;-0.30;91.50
8707;DHT22;4390;49.302;9.306;2022-12-19T05:08:04;-0.40;91.50
8707;DHT22;4390;49.302;9.306;2022-12-19T05:10:31;-0.40;91.90
8707;DHT22;4390;49.302;9.306;2022-12-19T05:12:58;-0.30;91.90
8707;DHT22;4390;49.302;9.306;2022-12-19T05:15:25;-0.30;92.00
8707;DHT22;4390;49.302;9.306;2022-12-19T05:17:51;-0.20;91.90
8707;DHT22;4390;49.302;9.306;2022-12-19T05:20:18;0.00;91.30
8707;DHT22;4390;49.302;9.306;2022-12-19T05:22:45;0.10;90.70
8707;DHT22;4390;49.302;9.306;2022-12-19T05:25:12;-0.20;91.40
8707;DHT22;4390;49.302;9.306;2022-12-19T05:27:38;-0.10;92.00
8707;DHT22;4390;49.302;9.306;2022-12-19T05:30:06;-0.20;92.00
8707;DHT22;4390;49.302;9.306;2022-12-19T05:32:33;-0.20;92.20
8707;DHT22;4390;49.302;9.306;2022-12-19T05:35:00;-0.10;92.40
8707;DHT22;4390;49.302;9.306;2022-12-19T05:37:27;-0.20;92.40
8707;DHT22;4390;49.302;9.306;2022-12-19T05:39:53;-0.20;92.60
8707;DHT22;4390;49.302;9.306;2022-12-19T05:42:20;0.10;92.20
8707;DHT22;4390;49.302;9.306;2022-12-19T05:44:47;0.00;92.20
8707;DHT22;4390;49.302;9.306;2022-12-19T05:47:13;0.00;92.60
8707;DHT22;4390;49.302;9.306;2022-12-19T05:49:40;-0.10;92.90
8707;DHT22;4390;49.302;9.306;2022-12-19T05:52:07;-0.10;92.80
8707;DHT22;4390;49.302;9.306;2022-12-19T05:54:35;0.00;92.60
8707;DHT22;4390;49.302;9.306;2022-12-19T05:57:02;0.00;92.10
8707;DHT22;4390;49.302;9.306;2022-12-19T05:59:29;0.10;92.00
8707;DHT22;4390;49.302;9.306;2022-12-19T06:01:56;0.10;92.10
8707;DHT22;4390;49.302;9.306;2022-12-19T06:04:24;0.10;91.80
8707;DHT22;4390;49.302;9.306;2022-12-19T06:06:52;0.00;92.40
8707;DHT22;4390;49.302;9.306;2022-12-19T06:09:18;0.00;92.60
8707;DHT22;4390;49.302;9.306;2022-12-19T06:11:45;0.10;92.40
8707;DHT22;4390;49.302;9.306;2022-12-19T06:14:12;0.20;91.90
8707;DHT22;4390;49.302;9.306;2022-12-19T06:16:39;0.00;92.50
8707;DHT22;4390;49.302;9.306;2022-12-19T06:19:06;0.00;92.80
8707;DHT22;4390;49.302;9.306;2022-12-19T06:21:32;0.10;92.80
8707;DHT22;4390;49.302;9.306;2022-12-19T06:24:00;0.20;92.40
8707;DHT22;4390;49.302;9.306;2022-12-19T06:26:27;0.20;92.60
8707;DHT22;4390;49.302;9.306;2022-12-19T06:28:54;0.10;92.70
8707;DHT22;4390;49.302;9.306;2022-12-19T06:31:22;0.10;92.80
8707;DHT22;4390;49.302;9.306;2022-12-19T06:33:50;0.20;92.90
8707;DHT22;4390;49.302;9.306;2022-12-19T06:36:22;0.20;92.90
8707;DHT22;4390;49.302;9.306;2022-12-19T06:38:49;0.20;92.70
8707;DHT22;4390;49.302;9.306;2022-12-19T06:41:17;0.00;93.10
8707;DHT22;4390;49.302;9.306;2022-12-19T06:44:05;0.00;93.60
8707;DHT22;4390;49.302;9.306;2022-12-19T06:46:33;0.10;93.80
8707;DHT22;4390;49.302;9.306;2022-12-19T06:49:00;0.20;93.20
8707;DHT22;4390;49.302;9.306;2022-12-19T06:51:27;0.20;92.60
8707;DHT22;4390;49.302;9.306;2022-12-19T06:53:54;0.00;93.20
8707;DHT22;4390;49.302;9.306;2022-12-19T06:56:21;0.10;93.50
8707;DHT22;4390;49.302;9.306;2022-12-19T06:58:48;0.20;93.40
8707;DHT22;4390;49.302;9.306;2022-12-19T07:04:08;0.20;93.20
8707;DHT22;4390;49.302;9.306;2022-12-19T07:06:38;0.20;93.40
8707;DHT22;4390;49.302;9.306;2022-12-19T07:09:11;0.20;93.30
8707;DHT22;4390;49.302;9.306;2022-12-19T07:11:38;0.00;93.70
8707;DHT22;4390;49.302;9.306;2022-12-19T07:14:04;-0.10;94.20
8707;DHT22;4390;49.302;9.306;2022-12-19T07:16:34;0.10;94.10
8707;DHT22;4390;49.302;9.306;2022-12-19T07:19:00;0.20;93.90
8707;DHT22;4390;49.302;9.306;2022-12-19T07:21:28;0.10;94.10
8707;DHT22;4390;49.302;9.306;2022-12-19T07:23:55;0.40;93.70
8707;DHT22;4390;49.302;9.306;2022-12-19T07:26:21;0.30;93.30
8707;DHT22;4390;49.302;9.306;2022-12-19T07:28:48;0.20;93.60
8707;DHT22;4390;49.302;9.306;2022-12-19T07:31:15;0.10;93.80
8707;DHT22;4390;49.302;9.306;2022-12-19T07:33:42;0.20;93.80
8707;DHT22;4390;49.302;9.306;2022-12-19T07:36:09;0.20;93.80
8707;DHT22;4390;49.302;9.306;2022-12-19T07:38:36;0.20;94.10
8707;DHT22;4390;49.302;9.306;2022-12-19T07:41:03;0.10;94.20
8707;DHT22;4390;49.302;9.306;2022-12-19T07:43:29;0.30;94.30
8707;DHT22;4390;49.302;9.306;2022-12-19T07:45:56;0.20;94.20
8707;DHT22;4390;49.302;9.306;2022-12-19T07:48:23;0.20;94.60
8707;DHT22;4390;49.302;9.306;2022-12-19T07:50:50;0.30;94.40
8707;DHT22;4390;49.302;9.306;2022-12-19T07:53:17;0.40;94.30
8707;DHT22;4390;49.302;9.306;2022-12-19T07:55:43;0.40;94.00
8707;DHT22;4390;49.302;9.306;2022-12-19T07:58:10;0.50;94.00
8707;DHT22;4390;49.302;9.306;2022-12-19T08:00:37;0.60;93.80
8707;DHT22;4390;49.302;9.306;2022-12-19T08:03:04;0.70;93.50
8707;DHT22;4390;49.302;9.306;2022-12-19T08:05:33;0.60;93.70
8707;DHT22;4390;49.302;9.306;2022-12-19T08:08:00;0.60;93.70
8707;DHT22;4390;49.302;9.306;2022-12-19T08:10:27;0.90;93.20
8707;DHT22;4390;49.302;9.306;2022-12-19T08:12:53;0.80;93.10
8707;DHT22;4390;49.302;9.306;2022-12-19T08:15:20;0.90;93.00
8707;DHT22;4390;49.302;9.306;2022-12-19T08:17:47;1.00;92.80
8707;DHT22;4390;49.302;9.306;2022-12-19T08:20:14;0.90;92.90
8707;DHT22;4390;49.302;9.306;2022-12-19T08:22:40;1.10;92.70
8707;DHT22;4390;49.302;9.306;2022-12-19T08:25:07;0.90;93.00
8707;DHT22;4390;49.302;9.306;2022-12-19T08:27:34;1.00;93.00
8707;DHT22;4390;49.302;9.306;2022-12-19T08:30:01;1.00;92.70
8707;DHT22;4390;49.302;9.306;2022-12-19T08:32:28;1.20;92.70
8707;DHT22;4390;49.302;9.306;2022-12-19T08:34:55;1.00;92.90
8707;DHT22;4390;49.302;9.306;2022-12-19T08:37:22;1.00;93.20
8707;DHT22;4390;49.302;9.306;2022-12-19T08:39:48;1.00;93.10
8707;DHT22;4390;49.302;9.306;2022-12-19T08:42:15;1.30;92.60
8707;DHT22;4390;49.302;9.306;2022-12-19T08:44:42;1.20;92.60
8707;DHT22;4390;49.302;9.306;2022-12-19T08:47:09;1.10;93.00
8707;DHT22;4390;49.302;9.306;2022-12-19T08:49:35;1.00;93.30
8707;DHT22;4390;49.302;9.306;2022-12-19T08:52:02;1.10;93.30
8707;DHT22;4390;49.302;9.306;2022-12-19T08:54:29;1.00;93.30
8707;DHT22;4390;49.302;9.306;2022-12-19T08:56:56;1.20;93.60
8707;DHT22;4390;49.302;9.306;2022-12-19T08:59:23;1.20;93.40
8707;DHT22;4390;49.302;9.306;2022-12-19T09:01:58;1.20;93.50
8707;DHT22;4390;49.302;9.306;2022-12-19T09:04:26;1.20;93.60
8707;DHT22;4390;49.302;9.306;2022-12-19T09:07:13;1.40;93.10
8707;DHT22;4390;49.302;9.306;2022-12-19T09:09:42;1.50;92.80
8707;DHT22;4390;49.302;9.306;2022-12-19T09:12:08;1.50;93.00
8707;DHT22;4390;49.302;9.306;2022-12-19T09:14:35;1.70;92.50
8707;DHT22;4390;49.302;9.306;2022-12-19T09:17:02;1.70;92.30
8707;DHT22;4390;49.302;9.306;2022-12-19T09:19:30;1.70;92.60
8707;DHT22;4390;49.302;9.306;2022-12-19T09:21:57;1.70;92.60
8707;DHT22;4390;49.302;9.306;2022-12-19T09:24:24;1.90;92.10
8707;DHT22;4390;49.302;9.306;2022-12-19T09:26:51;1.90;91.70
8707;DHT22;4390;49.302;9.306;2022-12-19T09:29:18;1.80;92.20
8707;DHT22;4390;49.302;9.306;2022-12-19T09:31:48;1.70;92.10
8707;DHT22;4390;49.302;9.306;2022-12-19T09:34:26;1.70;92.60
8707;DHT22;4390;49.302;9.306;2022-12-19T09:37:09;1.80;92.60
8707;DHT22;4390;49.302;9.306;2022-12-19T09:39:46;1.80;92.30
8707;DHT22;4390;49.302;9.306;2022-12-19T09:42:37;1.80;92.50
8707;DHT22;4390;49.302;9.306;2022-12-19T09:48:13;1.90;92.70
8707;DHT22;4390;49.302;9.306;2022-12-19T09:51:09;1.90;92.60
8707;DHT22;4390;49.302;9.306;2022-12-19T09:56:21;2.10;92.20
8707;DHT22;4390;49.302;9.306;2022-12-19T09:58:54;2.10;91.70
8707;DHT22;4390;49.302;9.306;2022-12-19T10:01:34;2.20;92.10
8707;DHT22;4390;49.302;9.306;2022-12-19T10:04:09;2.40;91.70
8707;DHT22;4390;49.302;9.306;2022-12-19T10:06:36;2.30;91.50
8707;DHT22;4390;49.302;9.306;2022-12-19T10:09:31;2.30;92.00
8707;DHT22;4390;49.302;9.306;2022-12-19T10:21:18;2.20;92.10
8707;DHT22;4390;49.302;9.306;2022-12-19T10:26:50;2.30;92.10
8707;DHT22;4390;49.302;9.306;2022-12-19T10:34:35;2.50;91.70
8707;DHT22;4390;49.302;9.306;2022-12-19T10:37:29;2.60;91.40
8707;DHT22;4390;49.302;9.306;2022-12-19T10:40:24;2.50;91.70
8707;DHT22;4390;49.302;9.306;2022-12-19T10:43:17;2.50;91.60
8707;DHT22;4390;49.302;9.306;2022-12-19T10:46:08;2.60;91.80
8707;DHT22;4390;49.302;9.306;2022-12-19T10:48:36;2.60;91.80
8707;DHT22;4390;49.302;9.306;2022-12-19T10:51:03;2.50;92.10
8707;DHT22;4390;49.302;9.306;2022-12-19T10:53:32;2.50;91.80
8707;DHT22;4390;49.302;9.306;2022-12-19T10:56:01;2.50;92.20
8707;DHT22;4390;49.302;9.306;2022-12-19T10:58:37;2.60;92.00
8707;DHT22;4390;49.302;9.306;2022-12-19T11:01:14;2.60;91.60
8707;DHT22;4390;49.302;9.306;2022-12-19T11:03:47;2.60;92.00
8707;DHT22;4390;49.302;9.306;2022-12-19T11:09:30;3.20;91.20
8707;DHT22;4390;49.302;9.306;2022-12-19T11:18:06;4.10;89.40
8707;DHT22;4390;49.302;9.306;2022-12-19T11:21:00;4.30;88.80
8707;DHT22;4390;49.302;9.306;2022-12-19T11:24:03;4.50;88.40
8707;DHT22;4390;49.302;9.306;2022-12-19T11:26:51;4.80;87.60
8707;DHT22;4390;49.302;9.306;2022-12-19T11:29:46;5.10;87.10
8707;DHT22;4390;49.302;9.306;2022-12-19T11:32:43;5.00;86.60
8707;DHT22;4390;49.302;9.306;2022-12-19T11:35:20;5.00;87.30
8707;DHT22;4390;49.302;9.306;2022-12-19T11:40:44;5.20;86.40
8707;DHT22;4390;49.302;9.306;2022-12-19T11:46:31;5.30;86.50
8707;DHT22;4390;49.302;9.306;2022-12-19T11:51:59;5.60;86.40
8707;DHT22;4390;49.302;9.306;2022-12-19T11:54:44;5.60;86.10
8707;DHT22;4390;49.302;9.306;2022-12-19T11:57:17;5.70;86.10
8707;DHT22;4390;49.302;9.306;2022-12-19T11:59:44;5.70;86.00
8707;DHT22;4390;49.302;9.306;2022-12-19T12:05:40;5.80;85.70
8707;DHT22;4390;49.302;9.306;2022-12-19T12:11:44;5.40;86.20
8707;DHT22;4390;49.302;9.306;2022-12-19T12:21:36;4.90;87.20
8707;DHT22;4390;49.302;9.306;2022-12-19T12:28:01;4.30;88.80
8707;DHT22;4390;49.302;9.306;2022-12-19T12:34:34;4.20;89.00
8707;DHT22;4390;49.302;9.306;2022-12-19T12:40:45;4.20;89.40
8707;DHT22;4390;49.302;9.306;2022-12-19T12:45:51;4.30;89.50
8707;DHT22;4390;49.302;9.306;2022-12-19T12:48:36;4.30;89.60
8707;DHT22;4390;49.302;9.306;2022-12-19T12:51:04;4.40;89.50
8707;DHT22;4390;49.302;9.306;2022-12-19T12:53:34;4.80;88.30
8707;DHT22;4390;49.302;9.306;2022-12-19T12:56:03;4.70;88.10
8707;DHT22;4390;49.302;9.306;2022-12-19T13:04:00;4.50;88.60
8707;DHT22;4390;49.302;9.306;2022-12-19T13:06:39;4.50;88.90
8707;DHT22;4390;49.302;9.306;2022-12-19T13:12:16;4.30;89.50
8707;DHT22;4390;49.302;9.306;2022-12-19T13:20:46;4.30;89.80
8707;DHT22;4390;49.302;9.306;2022-12-19T13:23:22;4.60;89.10
8707;DHT22;4390;49.302;9.306;2022-12-19T13:25:57;4.40;89.30
8707;DHT22;4390;49.302;9.306;2022-12-19T13:34:10;4.30;90.00
8707;DHT22;4390;49.302;9.306;2022-12-19T13:42:49;4.40;89.70
8707;DHT22;4390;49.302;9.306;2022-12-19T13:45:39;4.40;89.70
8707;DHT22;4390;49.302;9.306;2022-12-19T13:48:15;4.30;89.90
8707;DHT22;4390;49.302;9.306;2022-12-19T13:50:45;4.20;90.00
8707;DHT22;4390;49.302;9.306;2022-12-19T13:53:19;4.20;90.10
8707;DHT22;4390;49.302;9.306;2022-12-19T13:55:48;4.20;90.00
8707;DHT22;4390;49.302;9.306;2022-12-19T13:58:24;3.90;90.50
8707;DHT22;4390;49.302;9.306;2022-12-19T14:00:57;4.10;90.50
8707;DHT22;4390;49.302;9.306;2022-12-19T14:03:38;4.20;90.00
8707;DHT22;4390;49.302;9.306;2022-12-19T14:06:29;4.40;89.60
8707;DHT22;4390;49.302;9.306;2022-12-19T14:09:03;4.20;89.90
8707;DHT22;4390;49.302;9.306;2022-12-19T14:11:50;4.00;90.30
8707;DHT22;4390;49.302;9.306;2022-12-19T14:14:50;3.80;90.70
8707;DHT22;4390;49.302;9.306;2022-12-19T14:17:40;3.70;91.10
8707;DHT22;4390;49.302;9.306;2022-12-19T14:20:22;3.50;91.50
8707;DHT22;4390;49.302;9.306;2022-12-19T14:23:10;3.40;91.70
8707;DHT22;4390;49.302;9.306;2022-12-19T14:25:42;3.30;92.00
8707;DHT22;4390;49.302;9.306;2022-12-19T14:28:39;3.30;92.20
8707;DHT22;4390;49.302;9.306;2022-12-19T14:31:11;3.40;91.80
8707;DHT22;4390;49.302;9.306;2022-12-19T14:33:45;3.30;92.00
8707;DHT22;4390;49.302;9.306;2022-12-19T14:36:33;3.30;92.00
8707;DHT22;4390;49.302;9.306;2022-12-19T14:39:02;3.30;92.10
8707;DHT22;4390;49.302;9.306;2022-12-19T14:41:51;3.20;92.20
8707;DHT22;4390;49.302;9.306;2022-12-19T14:44:52;3.20;92.40
8707;DHT22;4390;49.302;9.306;2022-12-19T14:47:40;3.20;91.90
8707;DHT22;4390;49.302;9.306;2022-12-19T14:50:31;3.10;92.40
8707;DHT22;4390;49.302;9.306;2022-12-19T14:53:20;3.00;92.70
8707;DHT22;4390;49.302;9.306;2022-12-19T14:56:10;2.90;92.80
8707;DHT22;4390;49.302;9.306;2022-12-19T14:58:58;2.90;92.90
8707;DHT22;4390;49.302;9.306;2022-12-19T15:01:31;2.70;93.50
8707;DHT22;4390;49.302;9.306;2022-12-19T15:04:06;2.70;93.50
8707;DHT22;4390;49.302;9.306;2022-12-19T15:07:02;2.60;93.50
8707;DHT22;4390;49.302;9.306;2022-12-19T15:16:27;2.70;93.40
8707;DHT22;4390;49.302;9.306;2022-12-19T15:18:58;2.60;93.30
8707;DHT22;4390;49.302;9.306;2022-12-19T15:21:27;2.50;93.60
8707;DHT22;4390;49.302;9.306;2022-12-19T15:23:54;2.50;94.00
8707;DHT22;4390;49.302;9.306;2022-12-19T15:26:35;2.60;93.70
8707;DHT22;4390;49.302;9.306;2022-12-19T15:29:12;2.50;93.50
8707;DHT22;4390;49.302;9.306;2022-12-19T15:31:47;2.40;94.10
8707;DHT22;4390;49.302;9.306;2022-12-19T15:34:26;2.40;94.10
8707;DHT22;4390;49.302;9.306;2022-12-19T15:37:11;2.20;94.40
8707;DHT22;4390;49.302;9.306;2022-12-19T15:39:39;2.10;94.40
8707;DHT22;4390;49.302;9.306;2022-12-19T15:42:19;2.20;94.40
8707;DHT22;4390;49.302;9.306;2022-12-19T15:44:47;2.10;94.50
8707;DHT22;4390;49.302;9.306;2022-12-19T15:47:23;2.00;94.50
8707;DHT22;4390;49.302;9.306;2022-12-19T15:49:54;2.10;94.60
8707;DHT22;4390;49.302;9.306;2022-12-19T15:52:21;2.00;94.70
8707;DHT22;4390;49.302;9.306;2022-12-19T15:54:48;2.00;94.80
8707;DHT22;4390;49.302;9.306;2022-12-19T15:59:57;2.00;94.50
8707;DHT22;4390;49.302;9.306;2022-12-19T16:02:25;2.00;94.70
8707;DHT22;4390;49.302;9.306;2022-12-19T16:05:13;2.00;94.80
8707;DHT22;4390;49.302;9.306;2022-12-19T16:07:40;1.80;95.00
8707;DHT22;4390;49.302;9.306;2022-12-19T16:10:08;1.80;95.10
8707;DHT22;4390;49.302;9.306;2022-12-19T16:12:42;1.70;95.20
8707;DHT22;4390;49.302;9.306;2022-12-19T16:17:40;1.80;95.40
8707;DHT22;4390;49.302;9.306;2022-12-19T16:20:19;1.90;94.90
8707;DHT22;4390;49.302;9.306;2022-12-19T16:22:46;1.80;95.10
8707;DHT22;4390;49.302;9.306;2022-12-19T16:25:13;1.60;95.20
8707;DHT22;4390;49.302;9.306;2022-12-19T16:27:40;1.40;95.70
8707;DHT22;4390;49.302;9.306;2022-12-19T16:30:22;1.30;96.10
8707;DHT22;4390;49.302;9.306;2022-12-19T16:32:50;1.30;96.30
8707;DHT22;4390;49.302;9.306;2022-12-19T16:35:20;1.30;96.30
8707;DHT22;4390;49.302;9.306;2022-12-19T16:38:07;1.40;96.40
8707;DHT22;4390;49.302;9.306;2022-12-19T16:40:34;1.40;96.10
8707;DHT22;4390;49.302;9.306;2022-12-19T16:43:09;1.40;96.10
8707;DHT22;4390;49.302;9.306;2022-12-19T16:45:38;1.60;96.10
8707;DHT22;4390;49.302;9.306;2022-12-19T16:48:18;1.60;95.90
8707;DHT22;4390;49.302;9.306;2022-12-19T16:50:45;1.50;95.80
8707;DHT22;4390;49.302;9.306;2022-12-19T16:53:12;1.40;95.90
8707;DHT22;4390;49.302;9.306;2022-12-19T16:55:38;1.30;96.20
8707;DHT22;4390;49.302;9.306;2022-12-19T16:58:07;1.20;96.30
8707;DHT22;4390;49.302;9.306;2022-12-19T17:00:36;1.30;96.50
8707;DHT22;4390;49.302;9.306;2022-12-19T17:03:11;1.20;96.60
8707;DHT22;4390;49.302;9.306;2022-12-19T17:05:40;1.30;96.50
8707;DHT22;4390;49.302;9.306;2022-12-19T17:08:13;1.40;96.20
8707;DHT22;4390;49.302;9.306;2022-12-19T17:10:43;1.50;96.30
8707;DHT22;4390;49.302;9.306;2022-12-19T17:13:12;1.50;95.70
8707;DHT22;4390;49.302;9.306;2022-12-19T17:15:40;1.50;96.00
8707;DHT22;4390;49.302;9.306;2022-12-19T17:20:56;1.50;95.80
8707;DHT22;4390;49.302;9.306;2022-12-19T17:23:24;1.40;95.90
8707;DHT22;4390;49.302;9.306;2022-12-19T17:25:51;1.30;96.00
8707;DHT22;4390;49.302;9.306;2022-12-19T17:28:20;1.20;96.30
8707;DHT22;4390;49.302;9.306;2022-12-19T17:30:53;1.20;96.70
8707;DHT22;4390;49.302;9.306;2022-12-19T17:33:22;1.30;96.20
8707;DHT22;4390;49.302;9.306;2022-12-19T17:35:50;1.40;96.10
8707;DHT22;4390;49.302;9.306;2022-12-19T17:38:17;1.30;96.20
8707;DHT22;4390;49.302;9.306;2022-12-19T17:40:44;1.20;96.30
8707;DHT22;4390;49.302;9.306;2022-12-19T17:43:11;1.00;96.60
8707;DHT22;4390;49.302;9.306;2022-12-19T17:45:39;0.90;97.00
8707;DHT22;4390;49.302;9.306;2022-12-19T17:48:27;0.80;97.20
8707;DHT22;4390;49.302;9.306;2022-12-19T17:50:55;0.80;97.30
8707;DHT22;4390;49.302;9.306;2022-12-19T17:53:22;0.80;97.50
8707;DHT22;4390;49.302;9.306;2022-12-19T17:55:50;0.90;97.30
8707;DHT22;4390;49.302;9.306;2022-12-19T17:58:16;1.00;97.00
8707;DHT22;4390;49.302;9.306;2022-12-19T18:00:44;1.10;97.00
8707;DHT22;4390;49.302;9.306;2022-12-19T18:05:49;1.20;96.90
8707;DHT22;4390;49.302;9.306;2022-12-19T18:08:23;1.10;96.70
8707;DHT22;4390;49.302;9.306;2022-12-19T18:10:51;1.10;96.80
8707;DHT22;4390;49.302;9.306;2022-12-19T18:13:18;1.10;96.80
8707;DHT22;4390;49.302;9.306;2022-12-19T18:15:46;1.00;96.70
8707;DHT22;4390;49.302;9.306;2022-12-19T18:18:14;1.00;97.00
8707;DHT22;4390;49.302;9.306;2022-12-19T18:20:42;1.10;96.80
8707;DHT22;4390;49.302;9.306;2022-12-19T18:23:16;1.10;96.80
8707;DHT22;4390;49.302;9.306;2022-12-19T18:25:43;1.00;96.80
8707;DHT22;4390;49.302;9.306;2022-12-19T18:28:10;1.00;97.00
8707;DHT22;4390;49.302;9.306;2022-12-19T18:30:37;1.00;97.00
8707;DHT22;4390;49.302;9.306;2022-12-19T18:33:05;1.30;96.70
8707;DHT22;4390;49.302;9.306;2022-12-19T18:35:38;1.20;96.30
8707;DHT22;4390;49.302;9.306;2022-12-19T18:38:10;1.20;96.30
8707;DHT22;4390;49.302;9.306;2022-12-19T18:40:38;1.00;96.60
8707;DHT22;4390;49.302;9.306;2022-12-19T18:43:05;1.20;96.70
8707;DHT22;4390;49.302;9.306;2022-12-19T18:45:37;1.10;96.60
8707;DHT22;4390;49.302;9.306;2022-12-19T18:48:10;1.20;96.70
8707;DHT22;4390;49.302;9.306;2022-12-19T18:50:37;1.20;96.60
8707;DHT22;4390;49.302;9.306;2022-12-19T18:53:11;1.30;96.50
8707;DHT22;4390;49.302;9.306;2022-12-19T18:55:39;1.20;96.50
8707;DHT22;4390;49.302;9.306;2022-12-19T18:58:06;1.30;96.50
8707;DHT22;4390;49.302;9.306;2022-12-19T19:00:34;1.10;96.60
8707;DHT22;4390;49.302;9.306;2022-12-19T19:03:10;1.00;96.90
8707;DHT22;4390;49.302;9.306;2022-12-19T19:05:39;1.00;97.00
8707;DHT22;4390;49.302;9.306;2022-12-19T19:08:18;1.10;96.90
8707;DHT22;4390;49.302;9.306;2022-12-19T19:10:54;1.20;96.80
8707;DHT22;4390;49.302;9.306;2022-12-19T19:13:23;1.20;96.70